Aeroporto :
LOGIN :

Iscrizione | Disclaimer

   EN    FR    IT 

 










Sommario :    VFR   VFR Marginale   IFR   IFR Intensivo   IFR Molto Intensivo
Visibilità : 
Base nubi : 
>= 8 km
>= 3000ft
5 / 8 km
1000 / 3000 ft
1500m / 5 km
500 / 1000 ft
800 / 1500m
200 / 500 ft
< 800m
< 200 ft
Simboli :   Temporali  Nebbia  Neve Forte  Precipitazioni Forti  Vento > 20 kt
SIGMETs :   Varie  Temporali  Ghiacco  Turbolenza  Onda orograficha  Ceneri Vulcaniche






- Altitudine del aeroporto : 171 ft
- Codice IATA : EGC


LFBE - Bergerac

ULTIMO METAR :
  • 182030Z AUTO 00000KT 9999 ///TCU 07/02 Q1023 BECMG 04010KT NSC

METARs OBSOLETI :
  • 182000Z AUTO VRB03KT 9999 FEW045 BKN072 OVC084 06/03 Q1022 NOSIG
  • 181930Z AUTO 05004KT CAVOK 06/04 Q1022 NOSIG
  • 181900Z AUTO 35002KT CAVOK 06/03 Q1023 NOSIG
  • 181830Z AUTO 00000KT 9999 ///TCU 06/03 Q1022 BECMG 04010KT NSC
  • 181800Z AUTO 00000KT CAVOK 06/03 Q1022 BECMG 04010KT

TAF AMD TAF LFBE
Valido dal 18 a 18 ore il 19 a 18 ore UTC


181810Z 1818/1918 VRB03KT CAVOK
BECMG 1818/1820 04010KT
BECMG 1910/1912 03015G25KT



MetMap, La meteo Aeronautica in un colpo d'occhio ! - Copyright ORBIFLY Dicembre 2007 - Disclaimer

ORBIFLY MET'MAP TEAM :

Programmazione e sviluppo : Alexandra Zaïnal
Concezione : Baudouin d'Aumeries
Aiuto per la programmazione : Marc-Olivier Méhu
Supporto tecnico e logistico : Manuel Goepfert
Aiuto per la traduzione : Arnaldo La Scala

Contatto : metmap@orbifly.com




FONTI E CREDITI :

   NOAA